createdAt,value
2017-08-09T00:02:23.578Z,19.90
2017-08-09T00:04:52.657Z,19.80
2017-08-09T00:07:21.745Z,19.90
2017-08-09T00:09:51.046Z,19.90
2017-08-09T00:12:20.218Z,19.90
2017-08-09T00:14:49.307Z,19.90
2017-08-09T00:17:17.639Z,19.90
2017-08-09T00:19:46.799Z,19.90
2017-08-09T00:22:16.006Z,19.70
2017-08-09T00:24:44.303Z,19.60
2017-08-09T00:27:12.883Z,19.50
2017-08-09T00:29:41.194Z,19.30
2017-08-09T00:32:09.530Z,19.20
2017-08-09T00:34:37.904Z,19.10
2017-08-09T00:37:06.976Z,18.80
2017-08-09T00:39:36.212Z,18.70
2017-08-09T00:42:04.578Z,18.60
2017-08-09T00:44:32.959Z,18.60
2017-08-09T00:47:01.270Z,18.50
2017-08-09T00:49:29.614Z,18.40
2017-08-09T00:51:58.035Z,18.40
2017-08-09T00:54:26.353Z,18.40
2017-08-09T00:56:56.157Z,18.20
2017-08-09T00:59:24.485Z,18.10
2017-08-09T01:01:52.823Z,18.10
2017-08-09T01:04:22.138Z,18.00
2017-08-09T01:06:50.449Z,17.90
2017-08-09T01:09:18.742Z,18.00
2017-08-09T01:11:47.150Z,17.90
2017-08-09T01:14:16.218Z,17.80
2017-08-09T01:16:44.536Z,17.80
2017-08-09T01:19:13.593Z,17.70
2017-08-09T01:21:41.899Z,17.60
2017-08-09T01:24:11.088Z,17.60
2017-08-09T01:26:40.177Z,17.60
2017-08-09T01:29:08.570Z,17.50
2017-08-09T01:31:37.859Z,17.50
2017-08-09T01:34:06.796Z,17.50
2017-08-09T01:36:35.094Z,17.50
2017-08-09T01:39:03.512Z,17.50
2017-08-09T01:41:31.854Z,17.50
2017-08-09T01:44:00.263Z,17.40
2017-08-09T01:46:28.686Z,17.50
2017-08-09T01:48:57.226Z,17.40
2017-08-09T01:51:25.551Z,17.50
2017-08-09T01:53:53.983Z,17.40
2017-08-09T01:56:22.362Z,17.40
2017-08-09T01:58:50.743Z,17.40
2017-08-09T02:01:19.247Z,17.40
2017-08-09T02:03:47.545Z,17.30
2017-08-09T02:06:15.872Z,17.30
2017-08-09T02:08:45.073Z,17.20
2017-08-09T02:11:13.460Z,17.20
2017-08-09T02:13:41.939Z,17.20
2017-08-09T02:16:10.255Z,17.20
2017-08-09T02:18:38.566Z,17.20
2017-08-09T02:21:07.678Z,17.10
2017-08-09T02:23:36.122Z,17.10
2017-08-09T02:26:04.454Z,17.10
2017-08-09T02:28:32.942Z,17.10
2017-08-09T02:31:01.391Z,17.10
2017-08-09T02:33:30.456Z,17.10
2017-08-09T02:35:58.869Z,17.00
2017-08-09T02:38:27.256Z,17.10
2017-08-09T02:40:55.900Z,17.00
2017-08-09T02:43:24.306Z,17.00
2017-08-09T02:45:53.383Z,17.00
2017-08-09T02:48:21.693Z,17.00
2017-08-09T02:50:50.015Z,17.00
2017-08-09T02:53:18.430Z,17.00
2017-08-09T02:55:46.772Z,17.10
2017-08-09T02:58:15.202Z,17.10
2017-08-09T03:00:43.578Z,17.10
2017-08-09T03:03:11.919Z,17.10
2017-08-09T03:05:40.229Z,17.00
2017-08-09T03:08:09.474Z,17.00
2017-08-09T03:10:37.801Z,17.00
2017-08-09T03:13:06.890Z,17.00
2017-08-09T03:15:35.283Z,16.90
2017-08-09T03:18:03.586Z,16.90
2017-08-09T03:20:31.940Z,16.90
2017-08-09T03:23:00.247Z,16.90
2017-08-09T03:25:28.682Z,16.80
2017-08-09T03:27:56.985Z,16.80
2017-08-09T03:30:25.330Z,16.70
2017-08-09T03:32:53.646Z,16.70
2017-08-09T03:35:22.097Z,16.70
2017-08-09T03:37:51.301Z,16.60
2017-08-09T03:40:19.669Z,16.50
2017-08-09T03:42:48.982Z,16.50
2017-08-09T03:45:18.065Z,16.50
2017-08-09T03:47:46.394Z,16.50
2017-08-09T03:50:14.715Z,16.50
2017-08-09T03:52:43.794Z,16.40
2017-08-09T03:55:12.110Z,16.40
2017-08-09T03:57:40.471Z,16.40
2017-08-09T04:00:08.772Z,16.30
2017-08-09T04:02:37.098Z,16.30
2017-08-09T04:05:05.498Z,16.30
2017-08-09T04:07:33.858Z,16.30
2017-08-09T04:10:02.181Z,16.30
2017-08-09T04:12:30.516Z,16.40
2017-08-09T04:14:59.927Z,16.50
2017-08-09T04:17:29.010Z,16.50
2017-08-09T04:19:58.123Z,16.60
2017-08-09T04:22:27.197Z,16.60
2017-08-09T04:24:55.582Z,16.60
2017-08-09T04:27:24.787Z,16.60
2017-08-09T04:29:53.126Z,16.60
2017-08-09T04:32:21.655Z,16.70
2017-08-09T04:34:50.742Z,16.70
2017-08-09T04:37:19.819Z,16.80
2017-08-09T04:39:48.978Z,16.80
2017-08-09T04:42:17.290Z,16.70
2017-08-09T04:44:45.691Z,16.80
2017-08-09T04:47:14.082Z,16.80
2017-08-09T04:49:43.159Z,16.90
2017-08-09T04:52:11.597Z,16.80
2017-08-09T04:54:40.011Z,16.90
2017-08-09T04:57:09.134Z,16.90
2017-08-09T04:59:37.606Z,16.80
2017-08-09T05:02:05.974Z,16.90
2017-08-09T05:04:35.064Z,16.90
2017-08-09T05:07:03.460Z,16.80
2017-08-09T05:09:32.514Z,16.80
2017-08-09T05:12:00.838Z,16.80
2017-08-09T05:14:29.141Z,16.80
2017-08-09T05:16:57.583Z,16.80
2017-08-09T05:19:26.655Z,16.80
2017-08-09T05:21:55.778Z,16.80
2017-08-09T05:24:24.094Z,16.80
2017-08-09T05:26:52.417Z,16.90
2017-08-09T05:29:21.492Z,17.00
2017-08-09T05:31:49.890Z,16.90
2017-08-09T05:34:18.992Z,17.10
2017-08-09T05:36:47.689Z,17.10
2017-08-09T05:39:16.865Z,17.30
2017-08-09T05:41:46.886Z,17.30
2017-08-09T05:44:15.973Z,17.40
2017-08-09T05:46:44.330Z,17.30
2017-08-09T05:49:12.850Z,17.50
2017-08-09T05:51:41.902Z,17.80
2017-08-09T05:54:10.245Z,17.80
2017-08-09T05:56:38.708Z,18.00
2017-08-09T05:59:07.012Z,18.10
2017-08-09T06:01:35.362Z,18.30
2017-08-09T06:04:04.205Z,18.40
2017-08-09T06:06:32.614Z,18.50
2017-08-09T06:09:01.690Z,18.60
2017-08-09T06:11:30.398Z,18.60
2017-08-09T06:13:58.699Z,18.80
2017-08-09T06:16:27.023Z,19.10
2017-08-09T06:18:56.132Z,19.50
2017-08-09T06:21:25.240Z,19.60
2017-08-09T06:23:53.579Z,19.60
2017-08-09T06:26:22.670Z,19.80
2017-08-09T06:28:51.008Z,19.80
2017-08-09T06:31:19.307Z,19.90
2017-08-09T06:33:47.649Z,20.00
2017-08-09T06:36:16.434Z,20.10
2017-08-09T06:38:44.850Z,20.10
2017-08-09T06:41:13.212Z,20.20
2017-08-09T06:43:42.691Z,20.30
2017-08-09T06:46:10.980Z,20.50
2017-08-09T06:48:39.288Z,20.70
2017-08-09T06:51:07.633Z,21.00
2017-08-09T06:53:35.931Z,21.30
2017-08-09T06:56:04.258Z,21.60
2017-08-09T06:58:32.584Z,21.70
2017-08-09T07:01:01.247Z,21.70
2017-08-09T07:03:29.554Z,21.60
2017-08-09T07:05:57.877Z,21.50
2017-08-09T07:08:26.948Z,21.30
2017-08-09T07:10:55.465Z,21.20
2017-08-09T07:13:23.761Z,21.20
2017-08-09T07:15:52.057Z,21.10
2017-08-09T07:18:20.382Z,21.00
2017-08-09T07:20:49.472Z,20.90
2017-08-09T07:23:18.568Z,20.90
2017-08-09T07:25:46.876Z,20.90
2017-08-09T07:28:15.212Z,21.00
2017-08-09T07:30:44.327Z,21.20
2017-08-09T07:33:12.758Z,21.40
2017-08-09T07:35:41.071Z,21.40
2017-08-09T07:38:09.400Z,21.60
2017-08-09T07:40:37.741Z,21.70
2017-08-09T07:43:06.830Z,21.20
2017-08-09T07:45:35.167Z,21.20
2017-08-09T07:48:03.488Z,21.10
2017-08-09T07:50:31.824Z,21.20
2017-08-09T07:55:34.957Z,21.50
2017-08-09T07:58:04.013Z,21.50
2017-08-09T08:00:32.434Z,21.40
2017-08-09T08:03:01.494Z,21.50
2017-08-09T08:05:29.797Z,21.50
2017-08-09T08:07:58.881Z,21.80
2017-08-09T08:10:27.177Z,21.80
2017-08-09T08:12:56.265Z,21.80
2017-08-09T08:15:24.590Z,21.80
2017-08-09T08:17:52.900Z,21.80
2017-08-09T08:20:21.188Z,21.90
2017-08-09T08:22:49.539Z,22.00
2017-08-09T08:25:17.830Z,22.20
2017-08-09T08:27:46.163Z,22.30
2017-08-09T08:30:14.460Z,22.40
2017-08-09T08:32:42.982Z,22.60
2017-08-09T08:35:11.265Z,22.90
2017-08-09T08:37:39.588Z,23.20
2017-08-09T08:40:07.907Z,23.40
2017-08-09T08:42:36.991Z,23.40
2017-08-09T08:45:05.321Z,23.40
2017-08-09T08:47:33.618Z,23.40
2017-08-09T08:50:02.047Z,23.30
2017-08-09T08:52:31.133Z,23.00
2017-08-09T08:54:59.466Z,22.90
2017-08-09T08:57:27.798Z,22.80
2017-08-09T08:59:56.351Z,22.80
2017-08-09T09:02:24.677Z,23.00
2017-08-09T09:04:52.981Z,23.20
2017-08-09T09:07:21.531Z,23.10
2017-08-09T09:09:49.834Z,22.90
2017-08-09T09:12:18.168Z,22.70
2017-08-09T09:14:46.473Z,22.70
2017-08-09T09:17:14.828Z,22.70
2017-08-09T09:19:43.901Z,22.80
2017-08-09T09:22:12.316Z,22.80
2017-08-09T09:24:40.840Z,22.70
2017-08-09T09:27:09.154Z,22.50
2017-08-09T09:29:37.471Z,22.60
2017-08-09T09:32:05.808Z,22.70
2017-08-09T09:34:34.894Z,23.30
2017-08-09T09:37:03.190Z,23.20
2017-08-09T09:39:31.534Z,23.40
2017-08-09T09:41:59.903Z,23.60
2017-08-09T09:44:28.229Z,23.90
2017-08-09T09:46:56.527Z,24.00
2017-08-09T09:49:24.992Z,24.00
2017-08-09T09:51:53.298Z,24.00
2017-08-09T09:54:21.587Z,24.00
2017-08-09T09:56:49.920Z,24.00
2017-08-09T09:59:18.243Z,24.10
2017-08-09T10:01:46.551Z,24.10
2017-08-09T10:04:14.878Z,23.90
2017-08-09T10:06:43.236Z,23.60
2017-08-09T10:09:11.559Z,23.40
2017-08-09T10:11:39.928Z,23.20
2017-08-09T10:14:08.226Z,23.20
2017-08-09T10:16:36.582Z,23.30
2017-08-09T10:19:04.892Z,23.50
2017-08-09T10:21:33.667Z,23.50
2017-08-09T10:24:02.142Z,23.30
2017-08-09T10:26:31.243Z,23.10
2017-08-09T10:28:59.550Z,23.10
2017-08-09T10:31:27.867Z,23.10
2017-08-09T10:33:56.191Z,23.10
2017-08-09T10:36:25.238Z,23.40
2017-08-09T10:38:53.560Z,23.30
2017-08-09T10:41:21.897Z,23.50
2017-08-09T10:43:50.335Z,23.50
2017-08-09T10:46:18.630Z,23.50
2017-08-09T10:48:46.941Z,23.50
2017-08-09T10:51:15.283Z,23.50
2017-08-09T10:53:44.333Z,23.60
2017-08-09T10:56:12.670Z,23.80
2017-08-09T10:58:40.961Z,23.90
2017-08-09T11:01:10.070Z,23.70
2017-08-09T11:03:39.139Z,23.60
2017-08-09T11:06:07.461Z,23.60
2017-08-09T11:08:35.780Z,23.80
2017-08-09T11:11:04.210Z,24.00
2017-08-09T11:13:32.524Z,24.40
2017-08-09T11:16:00.821Z,24.40
2017-08-09T11:18:29.167Z,24.50
2017-08-09T11:20:57.525Z,24.80
2017-08-09T11:23:25.880Z,25.10
2017-08-09T11:25:54.214Z,25.20
2017-08-09T11:28:22.555Z,25.50
2017-08-09T11:30:50.875Z,25.40
2017-08-09T11:33:19.199Z,25.10
2017-08-09T11:35:48.255Z,25.00
2017-08-09T11:38:16.712Z,24.90
2017-08-09T11:40:45.032Z,24.70
2017-08-09T11:43:13.367Z,24.50
2017-08-09T11:45:41.703Z,24.20
2017-08-09T11:48:10.019Z,24.20
2017-08-09T11:50:38.323Z,24.40
2017-08-09T11:53:06.640Z,24.30
2017-08-09T11:55:34.964Z,24.20
2017-08-09T11:58:03.269Z,24.10
2017-08-09T12:00:31.964Z,24.10
2017-08-09T12:03:00.267Z,24.10
2017-08-09T12:05:28.587Z,24.10
2017-08-09T12:07:56.911Z,24.10
2017-08-09T12:10:25.236Z,24.40
2017-08-09T12:12:53.539Z,24.60
2017-08-09T12:15:21.841Z,24.70
2017-08-09T12:17:50.158Z,24.70
2017-08-09T12:20:18.484Z,24.60
2017-08-09T12:22:46.841Z,24.50
2017-08-09T12:25:15.150Z,24.40
2017-08-09T12:27:43.579Z,24.50
2017-08-09T12:30:11.999Z,24.50
2017-08-09T12:32:40.295Z,24.50
2017-08-09T12:35:08.632Z,24.40
2017-08-09T12:37:37.023Z,24.40
2017-08-09T12:40:05.370Z,24.50
2017-08-09T12:42:33.675Z,24.50
2017-08-09T12:45:01.990Z,24.30
2017-08-09T12:47:30.290Z,24.40
2017-08-09T12:49:58.613Z,24.50
2017-08-09T12:52:26.915Z,24.50
2017-08-09T12:54:55.567Z,24.60
2017-08-09T12:57:24.626Z,24.30
2017-08-09T12:59:52.931Z,24.30
2017-08-09T13:02:21.276Z,24.50
2017-08-09T13:04:49.574Z,24.60
2017-08-09T13:07:18.697Z,24.90
2017-08-09T13:09:47.009Z,24.90
2017-08-09T13:12:15.323Z,25.10
2017-08-09T13:14:43.627Z,25.40
2017-08-09T13:17:12.746Z,25.90
2017-08-09T13:19:41.035Z,25.80
2017-08-09T13:22:09.362Z,25.90
2017-08-09T13:24:37.700Z,26.10
2017-08-09T13:27:06.225Z,26.20
2017-08-09T13:29:34.530Z,25.90
2017-08-09T13:32:02.834Z,25.70
2017-08-09T13:34:31.147Z,25.60
2017-08-09T13:36:59.455Z,25.60
2017-08-09T13:39:27.819Z,25.80
2017-08-09T13:41:56.135Z,25.80
2017-08-09T13:44:24.482Z,25.80
2017-08-09T13:46:52.805Z,25.90
2017-08-09T13:49:21.415Z,25.90
2017-08-09T13:51:50.512Z,26.20
2017-08-09T13:54:18.806Z,26.20
2017-08-09T13:56:47.156Z,26.10
2017-08-09T13:59:15.475Z,26.00
2017-08-09T14:01:43.818Z,25.60
2017-08-09T14:04:12.143Z,25.40
2017-08-09T14:06:40.494Z,25.30
2017-08-09T14:09:08.830Z,25.40
2017-08-09T14:11:38.048Z,25.60
2017-08-09T14:14:06.385Z,25.50
2017-08-09T14:16:34.823Z,25.40
2017-08-09T14:19:03.132Z,25.40
2017-08-09T14:21:31.427Z,25.40
2017-08-09T14:23:59.771Z,25.40
2017-08-09T14:26:28.106Z,25.50
2017-08-09T14:28:57.195Z,25.50
2017-08-09T14:31:26.263Z,25.70
2017-08-09T14:33:54.602Z,25.60
2017-08-09T14:36:22.916Z,26.00
2017-08-09T14:38:51.232Z,26.10
2017-08-09T14:41:19.554Z,26.20
2017-08-09T14:43:47.995Z,26.30
2017-08-09T14:46:17.068Z,26.20
2017-08-09T14:48:46.138Z,26.20
2017-08-09T14:51:14.462Z,26.10
2017-08-09T14:53:42.790Z,26.20
2017-08-09T14:56:11.119Z,26.30
2017-08-09T14:58:39.435Z,26.30
2017-08-09T15:01:07.766Z,26.50
2017-08-09T15:03:36.070Z,26.60
2017-08-09T15:06:04.392Z,26.70
2017-08-09T15:08:32.700Z,26.30
2017-08-09T15:11:01.373Z,26.00
2017-08-09T15:13:30.444Z,25.60
2017-08-09T15:15:59.543Z,25.50
2017-08-09T15:18:27.891Z,25.50
2017-08-09T15:20:56.392Z,25.60
2017-08-09T15:23:24.699Z,25.60
2017-08-09T15:25:53.762Z,25.90
2017-08-09T15:28:22.070Z,25.90
2017-08-09T15:30:50.380Z,26.10
2017-08-09T15:33:18.691Z,26.20
2017-08-09T15:35:47.004Z,26.20
2017-08-09T15:38:15.444Z,26.20
2017-08-09T15:40:43.736Z,26.20
2017-08-09T15:43:12.077Z,26.10
2017-08-09T15:45:41.598Z,26.00
2017-08-09T15:48:10.809Z,26.80
2017-08-09T15:50:39.117Z,27.70
2017-08-09T15:53:07.398Z,28.60
2017-08-09T15:55:35.732Z,29.10
2017-08-09T15:58:04.051Z,29.20
2017-08-09T16:00:32.487Z,29.40
2017-08-09T16:03:00.767Z,29.60
2017-08-09T16:05:29.095Z,30.50
2017-08-09T16:07:57.487Z,30.50
2017-08-09T16:10:25.791Z,30.70
2017-08-09T16:12:54.130Z,31.20
2017-08-09T16:15:22.442Z,31.40
2017-08-09T16:17:50.940Z,31.50
2017-08-09T16:20:19.240Z,31.70
2017-08-09T16:22:47.552Z,32.00
2017-08-09T16:25:16.081Z,32.50
2017-08-09T16:27:44.379Z,31.90
2017-08-09T16:30:13.451Z,28.80
2017-08-09T16:32:43.444Z,28.70
2017-08-09T16:35:11.824Z,27.90
2017-08-09T16:37:40.148Z,27.10
2017-08-09T16:40:08.460Z,26.70
2017-08-09T16:42:36.770Z,26.90
2017-08-09T16:45:05.124Z,26.60
2017-08-09T16:47:33.403Z,26.30
2017-08-09T16:50:01.720Z,26.00
2017-08-09T16:52:30.798Z,25.40
2017-08-09T16:54:59.280Z,25.30
2017-08-09T16:57:27.627Z,25.20
2017-08-09T16:59:55.918Z,25.00
2017-08-09T17:02:24.215Z,25.90
2017-08-09T17:04:53.280Z,26.70
2017-08-09T17:07:22.411Z,27.30
2017-08-09T17:09:50.682Z,27.30
2017-08-09T17:12:19.167Z,27.90
2017-08-09T17:14:47.475Z,28.50
2017-08-09T17:17:15.808Z,29.10
2017-08-09T17:19:44.910Z,29.40
2017-08-09T17:22:13.204Z,29.40
2017-08-09T17:24:41.547Z,28.60
2017-08-09T17:27:09.843Z,28.30
2017-08-09T17:29:38.192Z,28.40
2017-08-09T17:32:06.492Z,28.10
2017-08-09T17:34:34.803Z,27.40
2017-08-09T17:37:03.136Z,26.70
2017-08-09T17:39:31.635Z,26.30
2017-08-09T17:41:59.963Z,25.90
2017-08-09T17:44:28.262Z,25.50
2017-08-09T17:46:56.582Z,25.20
2017-08-09T17:49:24.979Z,24.90
2017-08-09T17:51:53.279Z,24.50
2017-08-09T17:54:21.663Z,24.20
2017-08-09T17:56:49.971Z,23.90
2017-08-09T17:59:19.055Z,23.50
2017-08-09T18:01:48.152Z,23.40
2017-08-09T18:04:16.435Z,23.40
2017-08-09T18:06:45.544Z,23.10
2017-08-09T18:09:13.826Z,23.00
2017-08-09T18:11:42.878Z,22.90
2017-08-09T18:14:11.196Z,22.90
2017-08-09T18:16:39.488Z,23.00
2017-08-09T18:19:07.806Z,22.80
2017-08-09T18:21:36.102Z,22.80
2017-08-09T18:24:05.195Z,22.60
2017-08-09T18:26:33.496Z,22.60
2017-08-09T18:29:01.820Z,22.50
2017-08-09T18:31:30.108Z,22.40
2017-08-09T18:33:58.427Z,22.30
2017-08-09T18:36:26.750Z,22.20
2017-08-09T18:38:55.270Z,22.10
2017-08-09T18:41:24.338Z,21.90
2017-08-09T18:43:52.626Z,21.90
2017-08-09T18:46:20.940Z,21.90
2017-08-09T18:48:49.242Z,21.80
2017-08-09T18:51:17.578Z,21.70
2017-08-09T18:53:45.914Z,21.60
2017-08-09T18:56:14.274Z,21.50
2017-08-09T18:58:43.376Z,21.30
2017-08-09T19:01:11.722Z,21.30
2017-08-09T19:03:40.041Z,21.20
2017-08-09T19:06:08.384Z,21.20
2017-08-09T19:08:36.703Z,21.10
2017-08-09T19:11:05.817Z,20.80
2017-08-09T19:13:34.875Z,20.80
2017-08-09T19:16:04.104Z,20.70
2017-08-09T19:18:32.393Z,20.70
2017-08-09T19:21:01.474Z,20.50
2017-08-09T19:23:30.569Z,20.40
2017-08-09T19:25:58.927Z,20.40
2017-08-09T19:28:27.282Z,20.40
2017-08-09T19:30:55.677Z,20.30
2017-08-09T19:33:24.219Z,20.30
2017-08-09T19:35:52.604Z,20.20
2017-08-09T19:38:20.958Z,20.10
2017-08-09T19:40:49.497Z,20.10
2017-08-09T19:43:17.856Z,20.10
2017-08-09T19:45:46.208Z,20.00
2017-08-09T19:48:14.552Z,19.90
2017-08-09T19:50:43.695Z,19.80
2017-08-09T19:53:12.043Z,19.80
2017-08-09T19:55:41.189Z,19.70
2017-08-09T19:58:09.533Z,19.70
2017-08-09T20:00:37.893Z,19.60
2017-08-09T20:03:06.193Z,19.60
2017-08-09T20:05:34.523Z,19.60
2017-08-09T20:08:02.929Z,19.50
2017-08-09T20:10:31.414Z,19.50
2017-08-09T20:12:59.749Z,19.30
2017-08-09T20:15:28.849Z,19.30
2017-08-09T20:17:57.255Z,19.20
2017-08-09T20:20:25.575Z,19.20
2017-08-09T20:22:54.308Z,19.20
2017-08-09T20:25:22.690Z,19.30
2017-08-09T20:27:51.826Z,19.30
2017-08-09T20:30:20.158Z,19.20
2017-08-09T20:32:49.254Z,19.20
2017-08-09T20:35:18.351Z,19.20
2017-08-09T20:37:47.633Z,19.20
2017-08-09T20:40:16.026Z,19.10
2017-08-09T20:42:44.493Z,19.10
2017-08-09T20:45:13.599Z,19.10
2017-08-09T20:47:41.979Z,19.00
2017-08-09T20:50:10.367Z,19.00
2017-08-09T20:52:39.434Z,19.00
2017-08-09T20:55:07.830Z,18.90
2017-08-09T20:57:36.930Z,18.90
2017-08-09T21:00:06.016Z,18.80
2017-08-09T21:02:35.085Z,18.80
2017-08-09T21:05:03.406Z,18.70
2017-08-09T21:07:31.771Z,18.70
2017-08-09T21:10:01.168Z,18.60
2017-08-09T21:12:30.230Z,18.50
2017-08-09T21:14:58.639Z,18.50
2017-08-09T21:17:27.727Z,18.50
2017-08-09T21:19:56.019Z,18.40
2017-08-09T21:22:25.111Z,18.40
2017-08-09T21:24:54.176Z,18.30
2017-08-09T21:27:23.297Z,18.30
2017-08-09T21:29:51.591Z,18.30
2017-08-09T21:32:19.915Z,18.30
2017-08-09T21:34:48.222Z,18.20
2017-08-09T21:37:16.710Z,18.10
2017-08-09T21:39:45.935Z,18.10
2017-08-09T21:42:14.226Z,18.00
2017-08-09T21:44:42.572Z,18.00
2017-08-09T21:47:10.861Z,17.90
2017-08-09T21:49:39.216Z,17.80
2017-08-09T21:52:08.282Z,17.80
2017-08-09T21:54:36.633Z,17.70
2017-08-09T21:57:04.918Z,17.80
2017-08-09T21:59:33.543Z,17.80
2017-08-09T22:02:01.825Z,17.80
2017-08-09T22:04:30.901Z,17.70
2017-08-09T22:07:00.010Z,17.70
2017-08-09T22:09:29.086Z,17.60
2017-08-09T22:11:57.411Z,17.60
2017-08-09T22:14:25.716Z,17.50
2017-08-09T22:16:54.062Z,17.50
2017-08-09T22:19:22.368Z,17.60
2017-08-09T22:21:50.989Z,17.60
2017-08-09T22:24:20.097Z,17.50
2017-08-09T22:26:49.178Z,17.50
2017-08-09T22:29:18.278Z,17.40
2017-08-09T22:31:47.403Z,17.40
2017-08-09T22:34:15.854Z,17.40
2017-08-09T22:36:45.067Z,17.30
2017-08-09T22:39:13.426Z,17.30
2017-08-09T22:41:42.534Z,17.30
2017-08-09T22:44:11.623Z,17.30
2017-08-09T22:46:40.711Z,17.30
2017-08-09T22:49:09.099Z,17.20
2017-08-09T22:51:37.470Z,17.20
2017-08-09T22:54:05.818Z,17.10
2017-08-09T22:56:34.132Z,17.00
2017-08-09T22:59:03.381Z,17.00
2017-08-09T23:01:31.701Z,17.00
2017-08-09T23:04:01.043Z,17.00
2017-08-09T23:06:29.483Z,17.00
2017-08-09T23:08:58.554Z,17.00
2017-08-09T23:11:27.053Z,17.00
2017-08-09T23:13:56.138Z,17.00
2017-08-09T23:16:24.630Z,16.90
2017-08-09T23:18:53.703Z,16.90
2017-08-09T23:21:22.206Z,16.80
2017-08-09T23:23:50.685Z,16.90
2017-08-09T23:26:19.759Z,16.80
2017-08-09T23:28:48.101Z,16.80
2017-08-09T23:31:16.416Z,16.80
2017-08-09T23:33:44.739Z,16.80
2017-08-09T23:36:13.051Z,16.80
2017-08-09T23:38:41.362Z,16.80
2017-08-09T23:41:10.429Z,16.80
2017-08-09T23:43:38.934Z,16.80
2017-08-09T23:46:08.148Z,16.80
2017-08-09T23:48:37.243Z,16.80
2017-08-09T23:51:06.422Z,16.80
2017-08-09T23:53:35.519Z,16.70
2017-08-09T23:56:04.638Z,16.70
2017-08-09T23:58:32.941Z,16.70
